<?xml version="1.0" encoding="UTF-8" standalone="no" ?>
<gpx xmlns="http://www.topografix.com/GPX/1/1" xmlns:xsi="http://www.w3.org/2001/XMLSchema-instance" xsi:schemaLocation="http://www.topografix.com/GPX/1/1 http://www.topografix.com/GPX/1/1/gpx.xsd" version="1.1" creator="VisuGPX - https://www.visugpx.com">
  <metadata>
    <name>24 - Thenon : Boucle 16 de Bars</name>
    <desc><![CDATA[Cet itinéraire fait partie de la collection de EquiLiberté : www.equiliberte.org Il a été mis à disposition par l'Office de Tourisme Vézère Périgord Noir https://www.vezere-perigord.fr/fr Circuit NON ACCESSIBLE aux attelage. Boucle n° 16 - Thenon - Bars 35 km ? 800 m de dénivelé
Parcours noté très difficile pour les VTT / Difficile pour les chevaux. 
Parcours balisé VTT : triangle orange avec un 16 à l?intérieur précédé de deux petits cercles orange l?un sur l?autre (vérifié)
Prévu pour être pratiqué dans le sens inverse des aiguilles d?une montre.
Description : 
ce parcours vous fera découvrir les vallons du Périgord Noir en passant par le joli petit village de Bars, le moulin de la Gane, et la forêt Barade, roulante avec ses grandes allées.
Attention aux traversées de la D67 et de la D31 !
Points de départs suggérés : 
Thenon ancienne place du foirail rebaptisée Place Montaigne, à proximité du centre social et culturel, en dessous de l?église.
Bars : parking à l?entrée du village, à proximité du Bistrot Gourmand 
]]></desc>
  </metadata>
  <trk>
    <name><![CDATA[24 - Thenon - Boucle 16 de Bars]]></name>
    <trkseg>
      <trkpt lat="45.13684" lon="1.07141">
        <ele>254</ele>
        <time>2020-07-22T13:30:24Z</time>
      </trkpt>
      <trkpt lat="45.13615" lon="1.07154">
        <ele>252</ele>
        <time>2020-07-22T13:30:40Z</time>
      </trkpt>
      <trkpt lat="45.1359" lon="1.07151">
        <ele>251</ele>
        <time>2020-07-22T13:30:46Z</time>
      </trkpt>
      <trkpt lat="45.13527" lon="1.07188">
        <ele>245</ele>
        <time>2020-07-22T13:31:02Z</time>
      </trkpt>
      <trkpt lat="45.13384" lon="1.07191">
        <ele>234</ele>
        <time>2020-07-22T13:31:35Z</time>
      </trkpt>
      <trkpt lat="45.13382" lon="1.07212">
        <ele>234</ele>
        <time>2020-07-22T13:31:39Z</time>
      </trkpt>
      <trkpt lat="45.13272" lon="1.07259">
        <ele>218</ele>
        <time>2020-07-22T13:32:06Z</time>
      </trkpt>
      <trkpt lat="45.13164" lon="1.07349">
        <ele>190</ele>
        <time>2020-07-22T13:32:35Z</time>
      </trkpt>
      <trkpt lat="45.13151" lon="1.07419">
        <ele>186</ele>
        <time>2020-07-22T13:32:47Z</time>
      </trkpt>
      <trkpt lat="45.13065" lon="1.07422">
        <ele>180</ele>
        <time>2020-07-22T13:33:07Z</time>
      </trkpt>
      <trkpt lat="45.1301" lon="1.0739">
        <ele>180</ele>
        <time>2020-07-22T13:33:21Z</time>
      </trkpt>
      <trkpt lat="45.12901" lon="1.07407">
        <ele>178</ele>
        <time>2020-07-22T13:33:47Z</time>
      </trkpt>
      <trkpt lat="45.12632" lon="1.07114">
        <ele>237</ele>
        <time>2020-07-22T13:35:06Z</time>
      </trkpt>
      <trkpt lat="45.12561" lon="1.0709">
        <ele>243</ele>
        <time>2020-07-22T13:35:23Z</time>
      </trkpt>
      <trkpt lat="45.12517" lon="1.07088">
        <ele>243</ele>
        <time>2020-07-22T13:35:33Z</time>
      </trkpt>
      <trkpt lat="45.12498" lon="1.07069">
        <ele>243</ele>
        <time>2020-07-22T13:35:39Z</time>
      </trkpt>
      <trkpt lat="45.12424" lon="1.07085">
        <ele>234</ele>
        <time>2020-07-22T13:35:56Z</time>
      </trkpt>
      <trkpt lat="45.12387" lon="1.07021">
        <ele>235</ele>
        <time>2020-07-22T13:36:10Z</time>
      </trkpt>
      <trkpt lat="45.12378" lon="1.06855">
        <ele>233</ele>
        <time>2020-07-22T13:36:37Z</time>
      </trkpt>
      <trkpt lat="45.12412" lon="1.06778">
        <ele>231</ele>
        <time>2020-07-22T13:36:52Z</time>
      </trkpt>
      <trkpt lat="45.12436" lon="1.06686">
        <ele>231</ele>
        <time>2020-07-22T13:37:08Z</time>
      </trkpt>
      <trkpt lat="45.12356" lon="1.06645">
        <ele>223</ele>
        <time>2020-07-22T13:37:28Z</time>
      </trkpt>
      <trkpt lat="45.12172" lon="1.06676">
        <ele>218</ele>
        <time>2020-07-22T13:38:11Z</time>
      </trkpt>
      <trkpt lat="45.12125" lon="1.06779">
        <ele>203</ele>
        <time>2020-07-22T13:38:32Z</time>
      </trkpt>
      <trkpt lat="45.12115" lon="1.06852">
        <ele>199</ele>
        <time>2020-07-22T13:38:44Z</time>
      </trkpt>
      <trkpt lat="45.1203" lon="1.06873">
        <ele>188</ele>
        <time>2020-07-22T13:39:04Z</time>
      </trkpt>
      <trkpt lat="45.11993" lon="1.06773">
        <ele>191</ele>
        <time>2020-07-22T13:39:23Z</time>
      </trkpt>
      <trkpt lat="45.11949" lon="1.06751">
        <ele>194</ele>
        <time>2020-07-22T13:39:33Z</time>
      </trkpt>
      <trkpt lat="45.11924" lon="1.06908">
        <ele>200</ele>
        <time>2020-07-22T13:40:00Z</time>
      </trkpt>
      <trkpt lat="45.11884" lon="1.06808">
        <ele>204</ele>
        <time>2020-07-22T13:40:19Z</time>
      </trkpt>
      <trkpt lat="45.11646" lon="1.06638">
        <ele>234</ele>
        <time>2020-07-22T13:41:21Z</time>
      </trkpt>
      <trkpt lat="45.1149" lon="1.06649">
        <ele>237</ele>
        <time>2020-07-22T13:41:58Z</time>
      </trkpt>
      <trkpt lat="45.11381" lon="1.06847">
        <ele>247</ele>
        <time>2020-07-22T13:42:39Z</time>
      </trkpt>
      <trkpt lat="45.11319" lon="1.06876">
        <ele>246</ele>
        <time>2020-07-22T13:42:54Z</time>
      </trkpt>
      <trkpt lat="45.11252" lon="1.06767">
        <ele>243</ele>
        <time>2020-07-22T13:43:18Z</time>
      </trkpt>
      <trkpt lat="45.11244" lon="1.06693">
        <ele>244</ele>
        <time>2020-07-22T13:43:30Z</time>
      </trkpt>
      <trkpt lat="45.11208" lon="1.06626">
        <ele>245</ele>
        <time>2020-07-22T13:43:44Z</time>
      </trkpt>
      <trkpt lat="45.11188" lon="1.06479">
        <ele>242</ele>
        <time>2020-07-22T13:44:09Z</time>
      </trkpt>
      <trkpt lat="45.11199" lon="1.06207">
        <ele>245</ele>
        <time>2020-07-22T13:44:54Z</time>
      </trkpt>
      <trkpt lat="45.11272" lon="1.06036">
        <ele>247</ele>
        <time>2020-07-22T13:45:27Z</time>
      </trkpt>
      <trkpt lat="45.11283" lon="1.05961">
        <ele>244</ele>
        <time>2020-07-22T13:45:39Z</time>
      </trkpt>
      <trkpt lat="45.11366" lon="1.05962">
        <ele>240</ele>
        <time>2020-07-22T13:45:59Z</time>
      </trkpt>
      <trkpt lat="45.11402" lon="1.0594">
        <ele>237</ele>
        <time>2020-07-22T13:46:08Z</time>
      </trkpt>
      <trkpt lat="45.11403" lon="1.05852">
        <ele>232</ele>
        <time>2020-07-22T13:46:22Z</time>
      </trkpt>
      <trkpt lat="45.11424" lon="1.05827">
        <ele>229</ele>
        <time>2020-07-22T13:46:29Z</time>
      </trkpt>
      <trkpt lat="45.11523" lon="1.05814">
        <ele>226</ele>
        <time>2020-07-22T13:46:52Z</time>
      </trkpt>
      <trkpt lat="45.11585" lon="1.05886">
        <ele>224</ele>
        <time>2020-07-22T13:47:11Z</time>
      </trkpt>
      <trkpt lat="45.11725" lon="1.05977">
        <ele>215</ele>
        <time>2020-07-22T13:47:47Z</time>
      </trkpt>
      <trkpt lat="45.11794" lon="1.05935">
        <ele>218</ele>
        <time>2020-07-22T13:48:04Z</time>
      </trkpt>
      <trkpt lat="45.1178" lon="1.05877">
        <ele>219</ele>
        <time>2020-07-22T13:48:14Z</time>
      </trkpt>
      <trkpt lat="45.11683" lon="1.05727">
        <ele>232</ele>
        <time>2020-07-22T13:48:48Z</time>
      </trkpt>
      <trkpt lat="45.11636" lon="1.05688">
        <ele>236</ele>
        <time>2020-07-22T13:49:01Z</time>
      </trkpt>
      <trkpt lat="45.11646" lon="1.0558">
        <ele>240</ele>
        <time>2020-07-22T13:49:19Z</time>
      </trkpt>
      <trkpt lat="45.11669" lon="1.05474">
        <ele>240</ele>
        <time>2020-07-22T13:49:37Z</time>
      </trkpt>
      <trkpt lat="45.11653" lon="1.05406">
        <ele>244</ele>
        <time>2020-07-22T13:49:49Z</time>
      </trkpt>
      <trkpt lat="45.11607" lon="1.05342">
        <ele>254</ele>
        <time>2020-07-22T13:50:04Z</time>
      </trkpt>
      <trkpt lat="45.11543" lon="1.05288">
        <ele>260</ele>
        <time>2020-07-22T13:50:21Z</time>
      </trkpt>
      <trkpt lat="45.11463" lon="1.05267">
        <ele>264</ele>
        <time>2020-07-22T13:50:40Z</time>
      </trkpt>
      <trkpt lat="45.11428" lon="1.05233">
        <ele>267</ele>
        <time>2020-07-22T13:50:50Z</time>
      </trkpt>
      <trkpt lat="45.11399" lon="1.05116">
        <ele>271</ele>
        <time>2020-07-22T13:51:11Z</time>
      </trkpt>
      <trkpt lat="45.11422" lon="1.0486">
        <ele>269</ele>
        <time>2020-07-22T13:51:53Z</time>
      </trkpt>
      <trkpt lat="45.1141" lon="1.04832">
        <ele>268</ele>
        <time>2020-07-22T13:51:58Z</time>
      </trkpt>
      <trkpt lat="45.11145" lon="1.05061">
        <ele>279</ele>
        <time>2020-07-22T13:53:11Z</time>
      </trkpt>
      <trkpt lat="45.11109" lon="1.05108">
        <ele>277</ele>
        <time>2020-07-22T13:53:22Z</time>
      </trkpt>
      <trkpt lat="45.11059" lon="1.05231">
        <ele>278</ele>
        <time>2020-07-22T13:53:46Z</time>
      </trkpt>
      <trkpt lat="45.10898" lon="1.0534">
        <ele>273</ele>
        <time>2020-07-22T13:54:27Z</time>
      </trkpt>
      <trkpt lat="45.10802" lon="1.05498">
        <ele>271</ele>
        <time>2020-07-22T13:55:02Z</time>
      </trkpt>
      <trkpt lat="45.10777" lon="1.05511">
        <ele>271</ele>
        <time>2020-07-22T13:55:08Z</time>
      </trkpt>
      <trkpt lat="45.10711" lon="1.05483">
        <ele>269</ele>
        <time>2020-07-22T13:55:24Z</time>
      </trkpt>
      <trkpt lat="45.10689" lon="1.05458">
        <ele>269</ele>
        <time>2020-07-22T13:55:31Z</time>
      </trkpt>
      <trkpt lat="45.10614" lon="1.05409">
        <ele>269</ele>
        <time>2020-07-22T13:55:50Z</time>
      </trkpt>
      <trkpt lat="45.10609" lon="1.05426">
        <ele>269</ele>
        <time>2020-07-22T13:55:53Z</time>
      </trkpt>
      <trkpt lat="45.10524" lon="1.0535">
        <ele>267</ele>
        <time>2020-07-22T13:56:16Z</time>
      </trkpt>
      <trkpt lat="45.10499" lon="1.05291">
        <ele>268</ele>
        <time>2020-07-22T13:56:28Z</time>
      </trkpt>
      <trkpt lat="45.10461" lon="1.0534">
        <ele>261</ele>
        <time>2020-07-22T13:56:40Z</time>
      </trkpt>
      <trkpt lat="45.10406" lon="1.05491">
        <ele>250</ele>
        <time>2020-07-22T13:57:08Z</time>
      </trkpt>
      <trkpt lat="45.10335" lon="1.05847">
        <ele>233</ele>
        <time>2020-07-22T13:58:09Z</time>
      </trkpt>
      <trkpt lat="45.10353" lon="1.06058">
        <ele>212</ele>
        <time>2020-07-22T13:58:44Z</time>
      </trkpt>
      <trkpt lat="45.10348" lon="1.0612">
        <ele>213</ele>
        <time>2020-07-22T13:58:54Z</time>
      </trkpt>
      <trkpt lat="45.10292" lon="1.0617">
        <ele>209</ele>
        <time>2020-07-22T13:59:10Z</time>
      </trkpt>
      <trkpt lat="45.10186" lon="1.06437">
        <ele>204</ele>
        <time>2020-07-22T14:00:00Z</time>
      </trkpt>
      <trkpt lat="45.10189" lon="1.06474">
        <ele>204</ele>
        <time>2020-07-22T14:00:06Z</time>
      </trkpt>
      <trkpt lat="45.10098" lon="1.0646">
        <ele>204</ele>
        <time>2020-07-22T14:00:28Z</time>
      </trkpt>
      <trkpt lat="45.10025" lon="1.06416">
        <ele>214</ele>
        <time>2020-07-22T14:00:46Z</time>
      </trkpt>
      <trkpt lat="45.09983" lon="1.06349">
        <ele>223</ele>
        <time>2020-07-22T14:01:01Z</time>
      </trkpt>
      <trkpt lat="45.09963" lon="1.06325">
        <ele>226</ele>
        <time>2020-07-22T14:01:07Z</time>
      </trkpt>
      <trkpt lat="45.09959" lon="1.0628">
        <ele>228</ele>
        <time>2020-07-22T14:01:14Z</time>
      </trkpt>
      <trkpt lat="45.09858" lon="1.0627">
        <ele>237</ele>
        <time>2020-07-22T14:01:38Z</time>
      </trkpt>
      <trkpt lat="45.0979" lon="1.06086">
        <ele>248</ele>
        <time>2020-07-22T14:02:12Z</time>
      </trkpt>
      <trkpt lat="45.09661" lon="1.05877">
        <ele>260</ele>
        <time>2020-07-22T14:02:58Z</time>
      </trkpt>
      <trkpt lat="45.09605" lon="1.05721">
        <ele>261</ele>
        <time>2020-07-22T14:03:27Z</time>
      </trkpt>
      <trkpt lat="45.09468" lon="1.05468">
        <ele>264</ele>
        <time>2020-07-22T14:04:20Z</time>
      </trkpt>
      <trkpt lat="45.09557" lon="1.05431">
        <ele>265</ele>
        <time>2020-07-22T14:04:41Z</time>
      </trkpt>
      <trkpt lat="45.09695" lon="1.05277">
        <ele>275</ele>
        <time>2020-07-22T14:05:22Z</time>
      </trkpt>
      <trkpt lat="45.09712" lon="1.05092">
        <ele>273</ele>
        <time>2020-07-22T14:05:53Z</time>
      </trkpt>
      <trkpt lat="45.09698" lon="1.04873">
        <ele>268</ele>
        <time>2020-07-22T14:06:29Z</time>
      </trkpt>
      <trkpt lat="45.09709" lon="1.04759">
        <ele>262</ele>
        <time>2020-07-22T14:06:48Z</time>
      </trkpt>
      <trkpt lat="45.09706" lon="1.04641">
        <ele>257</ele>
        <time>2020-07-22T14:07:08Z</time>
      </trkpt>
      <trkpt lat="45.09774" lon="1.0452">
        <ele>249</ele>
        <time>2020-07-22T14:07:33Z</time>
      </trkpt>
      <trkpt lat="45.0974" lon="1.04418">
        <ele>244</ele>
        <time>2020-07-22T14:07:52Z</time>
      </trkpt>
      <trkpt lat="45.09767" lon="1.04355">
        <ele>239</ele>
        <time>2020-07-22T14:08:04Z</time>
      </trkpt>
      <trkpt lat="45.09859" lon="1.04228">
        <ele>226</ele>
        <time>2020-07-22T14:08:34Z</time>
      </trkpt>
      <trkpt lat="45.09892" lon="1.04294">
        <ele>227</ele>
        <time>2020-07-22T14:08:47Z</time>
      </trkpt>
      <trkpt lat="45.099" lon="1.04375">
        <ele>229</ele>
        <time>2020-07-22T14:09:01Z</time>
      </trkpt>
      <trkpt lat="45.09918" lon="1.0437">
        <ele>228</ele>
        <time>2020-07-22T14:09:05Z</time>
      </trkpt>
      <trkpt lat="45.09965" lon="1.04282">
        <ele>218</ele>
        <time>2020-07-22T14:09:23Z</time>
      </trkpt>
      <trkpt lat="45.10002" lon="1.04148">
        <ele>205</ele>
        <time>2020-07-22T14:09:47Z</time>
      </trkpt>
      <trkpt lat="45.10073" lon="1.04087">
        <ele>196</ele>
        <time>2020-07-22T14:10:06Z</time>
      </trkpt>
      <trkpt lat="45.10135" lon="1.04099">
        <ele>197</ele>
        <time>2020-07-22T14:10:21Z</time>
      </trkpt>
      <trkpt lat="45.1015" lon="1.04025">
        <ele>199</ele>
        <time>2020-07-22T14:10:34Z</time>
      </trkpt>
      <trkpt lat="45.10166" lon="1.03962">
        <ele>209</ele>
        <time>2020-07-22T14:10:45Z</time>
      </trkpt>
      <trkpt lat="45.10176" lon="1.0389">
        <ele>221</ele>
        <time>2020-07-22T14:10:57Z</time>
      </trkpt>
      <trkpt lat="45.10154" lon="1.038">
        <ele>228</ele>
        <time>2020-07-22T14:11:12Z</time>
      </trkpt>
      <trkpt lat="45.10135" lon="1.03666">
        <ele>239</ele>
        <time>2020-07-22T14:11:35Z</time>
      </trkpt>
      <trkpt lat="45.10113" lon="1.03604">
        <ele>240</ele>
        <time>2020-07-22T14:11:46Z</time>
      </trkpt>
      <trkpt lat="45.10097" lon="1.03473">
        <ele>243</ele>
        <time>2020-07-22T14:12:08Z</time>
      </trkpt>
      <trkpt lat="45.10118" lon="1.03372">
        <ele>248</ele>
        <time>2020-07-22T14:12:26Z</time>
      </trkpt>
      <trkpt lat="45.1016" lon="1.03276">
        <ele>251</ele>
        <time>2020-07-22T14:12:44Z</time>
      </trkpt>
      <trkpt lat="45.10301" lon="1.03308">
        <ele>253</ele>
        <time>2020-07-22T14:13:18Z</time>
      </trkpt>
      <trkpt lat="45.10348" lon="1.03134">
        <ele>257</ele>
        <time>2020-07-22T14:13:48Z</time>
      </trkpt>
      <trkpt lat="45.10467" lon="1.03167">
        <ele>260</ele>
        <time>2020-07-22T14:14:17Z</time>
      </trkpt>
      <trkpt lat="45.10497" lon="1.03179">
        <ele>262</ele>
        <time>2020-07-22T14:14:24Z</time>
      </trkpt>
      <trkpt lat="45.10556" lon="1.03171">
        <ele>265</ele>
        <time>2020-07-22T14:14:38Z</time>
      </trkpt>
      <trkpt lat="45.10583" lon="1.03147">
        <ele>267</ele>
        <time>2020-07-22T14:14:45Z</time>
      </trkpt>
      <trkpt lat="45.10609" lon="1.03087">
        <ele>268</ele>
        <time>2020-07-22T14:14:57Z</time>
      </trkpt>
      <trkpt lat="45.10689" lon="1.03021">
        <ele>267</ele>
        <time>2020-07-22T14:15:18Z</time>
      </trkpt>
      <trkpt lat="45.1076" lon="1.0292">
        <ele>261</ele>
        <time>2020-07-22T14:15:42Z</time>
      </trkpt>
      <trkpt lat="45.10863" lon="1.02991">
        <ele>263</ele>
        <time>2020-07-22T14:16:09Z</time>
      </trkpt>
      <trkpt lat="45.11043" lon="1.03276">
        <ele>262</ele>
        <time>2020-07-22T14:17:12Z</time>
      </trkpt>
      <trkpt lat="45.11148" lon="1.03366">
        <ele>260</ele>
        <time>2020-07-22T14:17:40Z</time>
      </trkpt>
      <trkpt lat="45.11248" lon="1.03349">
        <ele>257</ele>
        <time>2020-07-22T14:18:04Z</time>
      </trkpt>
      <trkpt lat="45.1109" lon="1.02748">
        <ele>251</ele>
        <time>2020-07-22T14:19:50Z</time>
      </trkpt>
      <trkpt lat="45.1092" lon="1.02588">
        <ele>250</ele>
        <time>2020-07-22T14:20:37Z</time>
      </trkpt>
      <trkpt lat="45.10856" lon="1.02592">
        <ele>246</ele>
        <time>2020-07-22T14:20:52Z</time>
      </trkpt>
      <trkpt lat="45.10824" lon="1.025">
        <ele>247</ele>
        <time>2020-07-22T14:21:09Z</time>
      </trkpt>
      <trkpt lat="45.10825" lon="1.02201">
        <ele>250</ele>
        <time>2020-07-22T14:21:58Z</time>
      </trkpt>
      <trkpt lat="45.10797" lon="1.02057">
        <ele>249</ele>
        <time>2020-07-22T14:22:23Z</time>
      </trkpt>
      <trkpt lat="45.10748" lon="1.01904">
        <ele>248</ele>
        <time>2020-07-22T14:22:51Z</time>
      </trkpt>
      <trkpt lat="45.10701" lon="1.01841">
        <ele>248</ele>
        <time>2020-07-22T14:23:06Z</time>
      </trkpt>
      <trkpt lat="45.10665" lon="1.01716">
        <ele>244</ele>
        <time>2020-07-22T14:23:28Z</time>
      </trkpt>
      <trkpt lat="45.1062" lon="1.01662">
        <ele>244</ele>
        <time>2020-07-22T14:23:42Z</time>
      </trkpt>
      <trkpt lat="45.10498" lon="1.01482">
        <ele>241</ele>
        <time>2020-07-22T14:24:23Z</time>
      </trkpt>
      <trkpt lat="45.10383" lon="1.01366">
        <ele>241</ele>
        <time>2020-07-22T14:24:56Z</time>
      </trkpt>
      <trkpt lat="45.10333" lon="1.01277">
        <ele>240</ele>
        <time>2020-07-22T14:25:15Z</time>
      </trkpt>
      <trkpt lat="45.10174" lon="1.01102">
        <ele>239</ele>
        <time>2020-07-22T14:26:02Z</time>
      </trkpt>
      <trkpt lat="45.10161" lon="1.00966">
        <ele>239</ele>
        <time>2020-07-22T14:26:24Z</time>
      </trkpt>
      <trkpt lat="45.10109" lon="1.00869">
        <ele>238</ele>
        <time>2020-07-22T14:26:44Z</time>
      </trkpt>
      <trkpt lat="45.09998" lon="1.00793">
        <ele>234</ele>
        <time>2020-07-22T14:27:13Z</time>
      </trkpt>
      <trkpt lat="45.09984" lon="1.00751">
        <ele>233</ele>
        <time>2020-07-22T14:27:21Z</time>
      </trkpt>
      <trkpt lat="45.09976" lon="1.00626">
        <ele>235</ele>
        <time>2020-07-22T14:27:42Z</time>
      </trkpt>
      <trkpt lat="45.09929" lon="1.00514">
        <ele>234</ele>
        <time>2020-07-22T14:28:03Z</time>
      </trkpt>
      <trkpt lat="45.09916" lon="1.00418">
        <ele>236</ele>
        <time>2020-07-22T14:28:19Z</time>
      </trkpt>
      <trkpt lat="45.09861" lon="1.00301">
        <ele>237</ele>
        <time>2020-07-22T14:28:42Z</time>
      </trkpt>
      <trkpt lat="45.09876" lon="1.00098">
        <ele>234</ele>
        <time>2020-07-22T14:29:16Z</time>
      </trkpt>
      <trkpt lat="45.09807" lon="0.99931">
        <ele>234</ele>
        <time>2020-07-22T14:29:48Z</time>
      </trkpt>
      <trkpt lat="45.09781" lon="0.99833">
        <ele>233</ele>
        <time>2020-07-22T14:30:05Z</time>
      </trkpt>
      <trkpt lat="45.098" lon="0.99767">
        <ele>234</ele>
        <time>2020-07-22T14:30:17Z</time>
      </trkpt>
      <trkpt lat="45.09781" lon="0.99572">
        <ele>233</ele>
        <time>2020-07-22T14:30:49Z</time>
      </trkpt>
      <trkpt lat="45.09742" lon="0.99539">
        <ele>230</ele>
        <time>2020-07-22T14:31:00Z</time>
      </trkpt>
      <trkpt lat="45.09639" lon="0.99369">
        <ele>227</ele>
        <time>2020-07-22T14:31:37Z</time>
      </trkpt>
      <trkpt lat="45.09584" lon="0.99363">
        <ele>225</ele>
        <time>2020-07-22T14:31:50Z</time>
      </trkpt>
      <trkpt lat="45.09565" lon="0.99513">
        <ele>224</ele>
        <time>2020-07-22T14:32:15Z</time>
      </trkpt>
      <trkpt lat="45.09612" lon="0.99624">
        <ele>231</ele>
        <time>2020-07-22T14:32:36Z</time>
      </trkpt>
      <trkpt lat="45.09644" lon="0.9977">
        <ele>235</ele>
        <time>2020-07-22T14:33:01Z</time>
      </trkpt>
      <trkpt lat="45.09637" lon="0.99859">
        <ele>238</ele>
        <time>2020-07-22T14:33:16Z</time>
      </trkpt>
      <trkpt lat="45.09574" lon="0.99955">
        <ele>244</ele>
        <time>2020-07-22T14:33:38Z</time>
      </trkpt>
      <trkpt lat="45.09535" lon="1.00081">
        <ele>249</ele>
        <time>2020-07-22T14:34:00Z</time>
      </trkpt>
      <trkpt lat="45.09513" lon="1.00217">
        <ele>256</ele>
        <time>2020-07-22T14:34:23Z</time>
      </trkpt>
      <trkpt lat="45.09412" lon="1.00237">
        <ele>259</ele>
        <time>2020-07-22T14:34:47Z</time>
      </trkpt>
      <trkpt lat="45.0929" lon="1.0042">
        <ele>271</ele>
        <time>2020-07-22T14:35:29Z</time>
      </trkpt>
      <trkpt lat="45.09245" lon="1.00515">
        <ele>270</ele>
        <time>2020-07-22T14:35:48Z</time>
      </trkpt>
      <trkpt lat="45.09174" lon="1.00664">
        <ele>266</ele>
        <time>2020-07-22T14:36:17Z</time>
      </trkpt>
      <trkpt lat="45.09175" lon="1.00707">
        <ele>267</ele>
        <time>2020-07-22T14:36:24Z</time>
      </trkpt>
      <trkpt lat="45.08974" lon="1.00641">
        <ele>259</ele>
        <time>2020-07-22T14:37:13Z</time>
      </trkpt>
      <trkpt lat="45.08783" lon="1.0087">
        <ele>239</ele>
        <time>2020-07-22T14:38:11Z</time>
      </trkpt>
      <trkpt lat="45.08769" lon="1.00971">
        <ele>239</ele>
        <time>2020-07-22T14:38:28Z</time>
      </trkpt>
      <trkpt lat="45.08706" lon="1.01103">
        <ele>233</ele>
        <time>2020-07-22T14:38:54Z</time>
      </trkpt>
      <trkpt lat="45.0868" lon="1.01338">
        <ele>226</ele>
        <time>2020-07-22T14:39:33Z</time>
      </trkpt>
      <trkpt lat="45.08635" lon="1.01493">
        <ele>220</ele>
        <time>2020-07-22T14:40:01Z</time>
      </trkpt>
      <trkpt lat="45.08505" lon="1.01582">
        <ele>209</ele>
        <time>2020-07-22T14:40:35Z</time>
      </trkpt>
      <trkpt lat="45.0837" lon="1.01541">
        <ele>202</ele>
        <time>2020-07-22T14:41:07Z</time>
      </trkpt>
      <trkpt lat="45.08198" lon="1.0159">
        <ele>190</ele>
        <time>2020-07-22T14:41:48Z</time>
      </trkpt>
      <trkpt lat="45.0812" lon="1.0162">
        <ele>189</ele>
        <time>2020-07-22T14:42:07Z</time>
      </trkpt>
      <trkpt lat="45.07985" lon="1.01717">
        <ele>180</ele>
        <time>2020-07-22T14:42:42Z</time>
      </trkpt>
      <trkpt lat="45.0791" lon="1.01743">
        <ele>175</ele>
        <time>2020-07-22T14:43:00Z</time>
      </trkpt>
      <trkpt lat="45.07882" lon="1.01727">
        <ele>176</ele>
        <time>2020-07-22T14:43:07Z</time>
      </trkpt>
      <trkpt lat="45.07845" lon="1.01767">
        <ele>173</ele>
        <time>2020-07-22T14:43:18Z</time>
      </trkpt>
      <trkpt lat="45.07608" lon="1.0185">
        <ele>164</ele>
        <time>2020-07-22T14:44:15Z</time>
      </trkpt>
      <trkpt lat="45.07593" lon="1.01913">
        <ele>161</ele>
        <time>2020-07-22T14:44:26Z</time>
      </trkpt>
      <trkpt lat="45.07504" lon="1.0207">
        <ele>159</ele>
        <time>2020-07-22T14:44:59Z</time>
      </trkpt>
      <trkpt lat="45.07473" lon="1.02199">
        <ele>151</ele>
        <time>2020-07-22T14:45:22Z</time>
      </trkpt>
      <trkpt lat="45.07403" lon="1.02174">
        <ele>149</ele>
        <time>2020-07-22T14:45:39Z</time>
      </trkpt>
      <trkpt lat="45.07356" lon="1.02204">
        <ele>147</ele>
        <time>2020-07-22T14:45:51Z</time>
      </trkpt>
      <trkpt lat="45.07292" lon="1.02393">
        <ele>148</ele>
        <time>2020-07-22T14:46:25Z</time>
      </trkpt>
      <trkpt lat="45.07277" lon="1.0241">
        <ele>151</ele>
        <time>2020-07-22T14:46:30Z</time>
      </trkpt>
      <trkpt lat="45.07378" lon="1.02462">
        <ele>158</ele>
        <time>2020-07-22T14:46:55Z</time>
      </trkpt>
      <trkpt lat="45.07518" lon="1.0255">
        <ele>167</ele>
        <time>2020-07-22T14:47:31Z</time>
      </trkpt>
      <trkpt lat="45.07533" lon="1.0261">
        <ele>179</ele>
        <time>2020-07-22T14:47:41Z</time>
      </trkpt>
      <trkpt lat="45.07502" lon="1.02838">
        <ele>208</ele>
        <time>2020-07-22T14:48:19Z</time>
      </trkpt>
      <trkpt lat="45.07525" lon="1.0305">
        <ele>232</ele>
        <time>2020-07-22T14:48:55Z</time>
      </trkpt>
      <trkpt lat="45.07473" lon="1.03174">
        <ele>239</ele>
        <time>2020-07-22T14:49:19Z</time>
      </trkpt>
      <trkpt lat="45.07448" lon="1.03386">
        <ele>245</ele>
        <time>2020-07-22T14:49:54Z</time>
      </trkpt>
      <trkpt lat="45.07483" lon="1.03407">
        <ele>245</ele>
        <time>2020-07-22T14:50:03Z</time>
      </trkpt>
      <trkpt lat="45.07554" lon="1.03417">
        <ele>244</ele>
        <time>2020-07-22T14:50:20Z</time>
      </trkpt>
      <trkpt lat="45.07649" lon="1.03451">
        <ele>245</ele>
        <time>2020-07-22T14:50:43Z</time>
      </trkpt>
      <trkpt lat="45.07787" lon="1.03438">
        <ele>251</ele>
        <time>2020-07-22T14:51:15Z</time>
      </trkpt>
      <trkpt lat="45.0789" lon="1.03448">
        <ele>254</ele>
        <time>2020-07-22T14:51:39Z</time>
      </trkpt>
      <trkpt lat="45.08067" lon="1.03569">
        <ele>252</ele>
        <time>2020-07-22T14:52:25Z</time>
      </trkpt>
      <trkpt lat="45.08201" lon="1.03718">
        <ele>253</ele>
        <time>2020-07-22T14:53:05Z</time>
      </trkpt>
      <trkpt lat="45.08278" lon="1.03775">
        <ele>252</ele>
        <time>2020-07-22T14:53:25Z</time>
      </trkpt>
      <trkpt lat="45.08318" lon="1.0388">
        <ele>257</ele>
        <time>2020-07-22T14:53:45Z</time>
      </trkpt>
      <trkpt lat="45.08373" lon="1.04146">
        <ele>267</ele>
        <time>2020-07-22T14:54:30Z</time>
      </trkpt>
      <trkpt lat="45.08407" lon="1.04393">
        <ele>264</ele>
        <time>2020-07-22T14:55:12Z</time>
      </trkpt>
      <trkpt lat="45.08719" lon="1.05207">
        <ele>266</ele>
        <time>2020-07-22T14:57:44Z</time>
      </trkpt>
      <trkpt lat="45.08845" lon="1.05259">
        <ele>261</ele>
        <time>2020-07-22T14:58:15Z</time>
      </trkpt>
      <trkpt lat="45.08813" lon="1.05287">
        <ele>262</ele>
        <time>2020-07-22T14:58:24Z</time>
      </trkpt>
      <trkpt lat="45.08778" lon="1.05337">
        <ele>264</ele>
        <time>2020-07-22T14:58:36Z</time>
      </trkpt>
      <trkpt lat="45.08841" lon="1.05458">
        <ele>261</ele>
        <time>2020-07-22T14:59:00Z</time>
      </trkpt>
      <trkpt lat="45.0888" lon="1.05557">
        <ele>258</ele>
        <time>2020-07-22T14:59:19Z</time>
      </trkpt>
      <trkpt lat="45.08997" lon="1.05752">
        <ele>268</ele>
        <time>2020-07-22T15:00:01Z</time>
      </trkpt>
      <trkpt lat="45.09057" lon="1.05786">
        <ele>273</ele>
        <time>2020-07-22T15:00:16Z</time>
      </trkpt>
      <trkpt lat="45.09148" lon="1.06092">
        <ele>268</ele>
        <time>2020-07-22T15:01:11Z</time>
      </trkpt>
      <trkpt lat="45.09283" lon="1.06322">
        <ele>254</ele>
        <time>2020-07-22T15:02:00Z</time>
      </trkpt>
      <trkpt lat="45.09315" lon="1.06398">
        <ele>250</ele>
        <time>2020-07-22T15:02:15Z</time>
      </trkpt>
      <trkpt lat="45.09297" lon="1.06499">
        <ele>243</ele>
        <time>2020-07-22T15:02:32Z</time>
      </trkpt>
      <trkpt lat="45.0933" lon="1.06703">
        <ele>241</ele>
        <time>2020-07-22T15:03:07Z</time>
      </trkpt>
      <trkpt lat="45.0941" lon="1.06929">
        <ele>249</ele>
        <time>2020-07-22T15:03:48Z</time>
      </trkpt>
      <trkpt lat="45.094" lon="1.06961">
        <ele>249</ele>
        <time>2020-07-22T15:03:54Z</time>
      </trkpt>
      <trkpt lat="45.09434" lon="1.07042">
        <ele>245</ele>
        <time>2020-07-22T15:04:10Z</time>
      </trkpt>
      <trkpt lat="45.09444" lon="1.07172">
        <ele>242</ele>
        <time>2020-07-22T15:04:31Z</time>
      </trkpt>
      <trkpt lat="45.09515" lon="1.07231">
        <ele>232</ele>
        <time>2020-07-22T15:04:50Z</time>
      </trkpt>
      <trkpt lat="45.09601" lon="1.07293">
        <ele>220</ele>
        <time>2020-07-22T15:05:13Z</time>
      </trkpt>
      <trkpt lat="45.09766" lon="1.07651">
        <ele>172</ele>
        <time>2020-07-22T15:06:23Z</time>
      </trkpt>
      <trkpt lat="45.09775" lon="1.07627">
        <ele>174</ele>
        <time>2020-07-22T15:06:28Z</time>
      </trkpt>
      <trkpt lat="45.09899" lon="1.07597">
        <ele>192</ele>
        <time>2020-07-22T15:06:57Z</time>
      </trkpt>
      <trkpt lat="45.10145" lon="1.0743">
        <ele>209</ele>
        <time>2020-07-22T15:08:01Z</time>
      </trkpt>
      <trkpt lat="45.10215" lon="1.0731">
        <ele>220</ele>
        <time>2020-07-22T15:08:27Z</time>
      </trkpt>
      <trkpt lat="45.10337" lon="1.07036">
        <ele>249</ele>
        <time>2020-07-22T15:09:20Z</time>
      </trkpt>
      <trkpt lat="45.10416" lon="1.07032">
        <ele>250</ele>
        <time>2020-07-22T15:09:38Z</time>
      </trkpt>
      <trkpt lat="45.10602" lon="1.07049">
        <ele>250</ele>
        <time>2020-07-22T15:10:22Z</time>
      </trkpt>
      <trkpt lat="45.10675" lon="1.07154">
        <ele>249</ele>
        <time>2020-07-22T15:10:46Z</time>
      </trkpt>
      <trkpt lat="45.10757" lon="1.07232">
        <ele>252</ele>
        <time>2020-07-22T15:11:09Z</time>
      </trkpt>
      <trkpt lat="45.10813" lon="1.07208">
        <ele>256</ele>
        <time>2020-07-22T15:11:23Z</time>
      </trkpt>
      <trkpt lat="45.10832" lon="1.07222">
        <ele>257</ele>
        <time>2020-07-22T15:11:28Z</time>
      </trkpt>
      <trkpt lat="45.10906" lon="1.07207">
        <ele>258</ele>
        <time>2020-07-22T15:11:45Z</time>
      </trkpt>
      <trkpt lat="45.11004" lon="1.07155">
        <ele>261</ele>
        <time>2020-07-22T15:12:10Z</time>
      </trkpt>
      <trkpt lat="45.11062" lon="1.0768">
        <ele>253</ele>
        <time>2020-07-22T15:13:38Z</time>
      </trkpt>
      <trkpt lat="45.11058" lon="1.07736">
        <ele>252</ele>
        <time>2020-07-22T15:13:47Z</time>
      </trkpt>
      <trkpt lat="45.10998" lon="1.07995">
        <ele>250</ele>
        <time>2020-07-22T15:14:32Z</time>
      </trkpt>
      <trkpt lat="45.11084" lon="1.08074">
        <ele>257</ele>
        <time>2020-07-22T15:14:56Z</time>
      </trkpt>
      <trkpt lat="45.11389" lon="1.08018">
        <ele>250</ele>
        <time>2020-07-22T15:16:07Z</time>
      </trkpt>
      <trkpt lat="45.11474" lon="1.07948">
        <ele>248</ele>
        <time>2020-07-22T15:16:30Z</time>
      </trkpt>
      <trkpt lat="45.11525" lon="1.07977">
        <ele>245</ele>
        <time>2020-07-22T15:16:43Z</time>
      </trkpt>
      <trkpt lat="45.11612" lon="1.07985">
        <ele>238</ele>
        <time>2020-07-22T15:17:04Z</time>
      </trkpt>
      <trkpt lat="45.11701" lon="1.07949">
        <ele>235</ele>
        <time>2020-07-22T15:17:25Z</time>
      </trkpt>
      <trkpt lat="45.12116" lon="1.0806">
        <ele>189</ele>
        <time>2020-07-22T15:19:04Z</time>
      </trkpt>
      <trkpt lat="45.12332" lon="1.08109">
        <ele>167</ele>
        <time>2020-07-22T15:19:55Z</time>
      </trkpt>
      <trkpt lat="45.12332" lon="1.0818">
        <ele>164</ele>
        <time>2020-07-22T15:20:07Z</time>
      </trkpt>
      <trkpt lat="45.1235" lon="1.08198">
        <ele>163</ele>
        <time>2020-07-22T15:20:12Z</time>
      </trkpt>
      <trkpt lat="45.12406" lon="1.08286">
        <ele>163</ele>
        <time>2020-07-22T15:20:31Z</time>
      </trkpt>
      <trkpt lat="45.12574" lon="1.08181">
        <ele>171</ele>
        <time>2020-07-22T15:21:14Z</time>
      </trkpt>
      <trkpt lat="45.12472" lon="1.08351">
        <ele>180</ele>
        <time>2020-07-22T15:21:51Z</time>
      </trkpt>
      <trkpt lat="45.12454" lon="1.08438">
        <ele>183</ele>
        <time>2020-07-22T15:22:06Z</time>
      </trkpt>
      <trkpt lat="45.12466" lon="1.08506">
        <ele>190</ele>
        <time>2020-07-22T15:22:17Z</time>
      </trkpt>
      <trkpt lat="45.12449" lon="1.08598">
        <ele>197</ele>
        <time>2020-07-22T15:22:33Z</time>
      </trkpt>
      <trkpt lat="45.12663" lon="1.08446">
        <ele>221</ele>
        <time>2020-07-22T15:23:29Z</time>
      </trkpt>
      <trkpt lat="45.12727" lon="1.08452">
        <ele>228</ele>
        <time>2020-07-22T15:23:44Z</time>
      </trkpt>
      <trkpt lat="45.12829" lon="1.08583">
        <ele>253</ele>
        <time>2020-07-22T15:24:16Z</time>
      </trkpt>
      <trkpt lat="45.12857" lon="1.08732">
        <ele>259</ele>
        <time>2020-07-22T15:24:42Z</time>
      </trkpt>
      <trkpt lat="45.12894" lon="1.08781">
        <ele>255</ele>
        <time>2020-07-22T15:24:53Z</time>
      </trkpt>
      <trkpt lat="45.12968" lon="1.08829">
        <ele>253</ele>
        <time>2020-07-22T15:25:12Z</time>
      </trkpt>
      <trkpt lat="45.13132" lon="1.08867">
        <ele>252</ele>
        <time>2020-07-22T15:25:51Z</time>
      </trkpt>
      <trkpt lat="45.13257" lon="1.08798">
        <ele>259</ele>
        <time>2020-07-22T15:26:23Z</time>
      </trkpt>
      <trkpt lat="45.13397" lon="1.08684">
        <ele>274</ele>
        <time>2020-07-22T15:27:00Z</time>
      </trkpt>
      <trkpt lat="45.13489" lon="1.08566">
        <ele>269</ele>
        <time>2020-07-22T15:27:29Z</time>
      </trkpt>
      <trkpt lat="45.13544" lon="1.08526">
        <ele>271</ele>
        <time>2020-07-22T15:27:44Z</time>
      </trkpt>
      <trkpt lat="45.1357" lon="1.08479">
        <ele>270</ele>
        <time>2020-07-22T15:27:53Z</time>
      </trkpt>
      <trkpt lat="45.13628" lon="1.08422">
        <ele>268</ele>
        <time>2020-07-22T15:28:10Z</time>
      </trkpt>
      <trkpt lat="45.13643" lon="1.0816">
        <ele>264</ele>
        <time>2020-07-22T15:28:53Z</time>
      </trkpt>
      <trkpt lat="45.1375" lon="1.08044">
        <ele>259</ele>
        <time>2020-07-22T15:29:25Z</time>
      </trkpt>
      <trkpt lat="45.1392" lon="1.07753">
        <ele>246</ele>
        <time>2020-07-22T15:30:27Z</time>
      </trkpt>
      <trkpt lat="45.13943" lon="1.07536">
        <ele>240</ele>
        <time>2020-07-22T15:31:03Z</time>
      </trkpt>
      <trkpt lat="45.13901" lon="1.07486">
        <ele>236</ele>
        <time>2020-07-22T15:31:16Z</time>
      </trkpt>
      <trkpt lat="45.1392" lon="1.07413">
        <ele>243</ele>
        <time>2020-07-22T15:31:29Z</time>
      </trkpt>
      <trkpt lat="45.13905" lon="1.07362">
        <ele>247</ele>
        <time>2020-07-22T15:31:38Z</time>
      </trkpt>
      <trkpt lat="45.13841" lon="1.07186">
        <ele>256</ele>
        <time>2020-07-22T15:32:10Z</time>
      </trkpt>
      <trkpt lat="45.1385" lon="1.07098">
        <ele>255</ele>
        <time>2020-07-22T15:32:25Z</time>
      </trkpt>
      <trkpt lat="45.13739" lon="1.07085">
        <ele>255</ele>
        <time>2020-07-22T15:32:51Z</time>
      </trkpt>
      <trkpt lat="45.13718" lon="1.07122">
        <ele>254</ele>
        <time>2020-07-22T15:32:59Z</time>
      </trkpt>
      <trkpt lat="45.13689" lon="1.07121">
        <ele>254</ele>
        <time>2020-07-22T15:33:06Z</time>
      </trkpt>
    </trkseg>
  </trk>
</gpx>